sensor_id;sensor_type;location;lat;lon;timestamp;pressure;altitude;pressure_sealevel;temperature
66403;BMP180;53212;52.112;5.144;2022-12-04T00:02:13;101863.60;;;0.50
66403;BMP180;53212;52.112;5.144;2022-12-04T00:04:39;101868.40;;;0.50
66403;BMP180;53212;52.112;5.144;2022-12-04T00:07:04;101861.40;;;0.50
66403;BMP180;53212;52.112;5.144;2022-12-04T00:09:29;101853.60;;;0.50
66403;BMP180;53212;52.112;5.144;2022-12-04T00:11:55;101856.60;;;0.50
66403;BMP180;53212;52.112;5.144;2022-12-04T00:14:20;101860.00;;;0.50
66403;BMP180;53212;52.112;5.144;2022-12-04T00:16:46;101859.80;;;0.50
66403;BMP180;53212;52.112;5.144;2022-12-04T00:19:11;101855.60;;;0.50
66403;BMP180;53212;52.112;5.144;2022-12-04T00:21:36;101856.80;;;0.50
66403;BMP180;53212;52.112;5.144;2022-12-04T00:24:02;101856.40;;;0.50
66403;BMP180;53212;52.112;5.144;2022-12-04T00:26:28;101854.80;;;0.50
66403;BMP180;53212;52.112;5.144;2022-12-04T00:28:56;101856.20;;;0.50
66403;BMP180;53212;52.112;5.144;2022-12-04T00:31:25;101852.00;;;0.50
66403;BMP180;53212;52.112;5.144;2022-12-04T00:33:51;101853.80;;;0.54
66403;BMP180;53212;52.112;5.144;2022-12-04T00:36:20;101850.80;;;0.54
66403;BMP180;53212;52.112;5.144;2022-12-04T00:38:47;101845.00;;;0.50
66403;BMP180;53212;52.112;5.144;2022-12-04T00:41:18;101843.20;;;0.50
66403;BMP180;53212;52.112;5.144;2022-12-04T00:43:44;101836.40;;;0.50
66403;BMP180;53212;52.112;5.144;2022-12-04T00:46:12;101837.60;;;0.50
66403;BMP180;53212;52.112;5.144;2022-12-04T00:48:37;101833.20;;;0.50
66403;BMP180;53212;52.112;5.144;2022-12-04T00:51:06;101829.20;;;0.50
66403;BMP180;53212;52.112;5.144;2022-12-04T00:53:32;101824.20;;;0.50
66403;BMP180;53212;52.112;5.144;2022-12-04T00:55:57;101824.60;;;0.50
66403;BMP180;53212;52.112;5.144;2022-12-04T00:58:23;101827.80;;;0.50
66403;BMP180;53212;52.112;5.144;2022-12-04T01:00:49;101826.60;;;0.50
66403;BMP180;53212;52.112;5.144;2022-12-04T01:03:14;101822.80;;;0.50
66403;BMP180;53212;52.112;5.144;2022-12-04T01:05:44;101825.00;;;0.50
66403;BMP180;53212;52.112;5.144;2022-12-04T01:08:11;101826.20;;;0.50
66403;BMP180;53212;52.112;5.144;2022-12-04T01:10:38;101827.80;;;0.50
66403;BMP180;53212;52.112;5.144;2022-12-04T01:13:04;101830.60;;;0.50
66403;BMP180;53212;52.112;5.144;2022-12-04T01:15:30;101829.00;;;0.40
66403;BMP180;53212;52.112;5.144;2022-12-04T01:17:55;101833.80;;;0.40
66403;BMP180;53212;52.112;5.144;2022-12-04T01:20:21;101829.20;;;0.40
66403;BMP180;53212;52.112;5.144;2022-12-04T01:22:46;101829.60;;;0.40
66403;BMP180;53212;52.112;5.144;2022-12-04T01:25:12;101825.40;;;0.42
66403;BMP180;53212;52.112;5.144;2022-12-04T01:27:37;101825.80;;;0.48
66403;BMP180;53212;52.112;5.144;2022-12-04T01:30:03;101830.60;;;0.50
66403;BMP180;53212;52.112;5.144;2022-12-04T01:32:29;101827.20;;;0.50
66403;BMP180;53212;52.112;5.144;2022-12-04T01:34:55;101829.00;;;0.50
66403;BMP180;53212;52.112;5.144;2022-12-04T01:37:20;101828.20;;;0.50
66403;BMP180;53212;52.112;5.144;2022-12-04T01:39:45;101827.60;;;0.50
66403;BMP180;53212;52.112;5.144;2022-12-04T01:42:13;101822.40;;;0.50
66403;BMP180;53212;52.112;5.144;2022-12-04T01:47:47;101826.60;;;0.50
66403;BMP180;53212;52.112;5.144;2022-12-04T01:50:13;101821.40;;;0.46
66403;BMP180;53212;52.112;5.144;2022-12-04T01:52:39;101821.40;;;0.50
66403;BMP180;53212;52.112;5.144;2022-12-04T01:55:05;101823.20;;;0.50
66403;BMP180;53212;52.112;5.144;2022-12-04T01:57:31;101827.80;;;0.48
66403;BMP180;53212;52.112;5.144;2022-12-04T02:00:15;101823.80;;;0.42
66403;BMP180;53212;52.112;5.144;2022-12-04T02:02:45;101825.20;;;0.48
66403;BMP180;53212;52.112;5.144;2022-12-04T02:05:15;101822.20;;;0.48
66403;BMP180;53212;52.112;5.144;2022-12-04T02:07:44;101830.00;;;0.42
66403;BMP180;53212;52.112;5.144;2022-12-04T02:10:12;101833.20;;;0.50
66403;BMP180;53212;52.112;5.144;2022-12-04T02:12:47;101831.60;;;0.50
66403;BMP180;53212;52.112;5.144;2022-12-04T02:18:18;101832.20;;;0.50
66403;BMP180;53212;52.112;5.144;2022-12-04T02:21:25;101829.40;;;0.50
66403;BMP180;53212;52.112;5.144;2022-12-04T02:24:06;101829.00;;;0.50
66403;BMP180;53212;52.112;5.144;2022-12-04T02:27:14;101832.20;;;0.50
66403;BMP180;53212;52.112;5.144;2022-12-04T02:30:05;101831.40;;;0.50
66403;BMP180;53212;52.112;5.144;2022-12-04T02:36:24;101824.00;;;0.50
66403;BMP180;53212;52.112;5.144;2022-12-04T02:39:03;101824.40;;;0.56
66403;BMP180;53212;52.112;5.144;2022-12-04T02:41:40;101825.40;;;0.60
66403;BMP180;53212;52.112;5.144;2022-12-04T02:44:21;101820.80;;;0.60
66403;BMP180;53212;52.112;5.144;2022-12-04T02:46:53;101821.80;;;0.60
66403;BMP180;53212;52.112;5.144;2022-12-04T02:49:34;101820.60;;;0.60
66403;BMP180;53212;52.112;5.144;2022-12-04T02:52:07;101814.60;;;0.60
66403;BMP180;53212;52.112;5.144;2022-12-04T02:54:38;101814.60;;;0.60
66403;BMP180;53212;52.112;5.144;2022-12-04T02:57:09;101814.20;;;0.60
66403;BMP180;53212;52.112;5.144;2022-12-04T02:59:41;101811.60;;;0.60
66403;BMP180;53212;52.112;5.144;2022-12-04T03:02:37;101812.20;;;0.60
66403;BMP180;53212;52.112;5.144;2022-12-04T03:05:10;101810.40;;;0.60
66403;BMP180;53212;52.112;5.144;2022-12-04T03:08:20;101804.80;;;0.60
66403;BMP180;53212;52.112;5.144;2022-12-04T03:10:44;101799.00;;;0.60
66403;BMP180;53212;52.112;5.144;2022-12-04T03:13:17;101794.40;;;0.58
66403;BMP180;53212;52.112;5.144;2022-12-04T03:15:52;101796.00;;;0.50
66403;BMP180;53212;52.112;5.144;2022-12-04T03:18:30;101793.40;;;0.50
66403;BMP180;53212;52.112;5.144;2022-12-04T03:21:02;101792.40;;;0.50
66403;BMP180;53212;52.112;5.144;2022-12-04T03:23:44;101790.20;;;0.50
66403;BMP180;53212;52.112;5.144;2022-12-04T03:26:28;101791.80;;;0.50
66403;BMP180;53212;52.112;5.144;2022-12-04T03:29:08;101793.20;;;0.50
66403;BMP180;53212;52.112;5.144;2022-12-04T03:31:48;101789.60;;;0.50
66403;BMP180;53212;52.112;5.144;2022-12-04T03:35:17;101786.40;;;0.50
66403;BMP180;53212;52.112;5.144;2022-12-04T03:37:20;101778.40;;;0.50
66403;BMP180;53212;52.112;5.144;2022-12-04T03:40:18;101779.40;;;0.50
66403;BMP180;53212;52.112;5.144;2022-12-04T03:43:00;101776.00;;;0.50
66403;BMP180;53212;52.112;5.144;2022-12-04T03:49:14;101778.20;;;0.50
66403;BMP180;53212;52.112;5.144;2022-12-04T03:51:49;101781.60;;;0.50
66403;BMP180;53212;52.112;5.144;2022-12-04T03:54:19;101780.20;;;0.50
66403;BMP180;53212;52.112;5.144;2022-12-04T03:56:53;101782.20;;;0.50
66403;BMP180;53212;52.112;5.144;2022-12-04T03:59:28;101780.40;;;0.50
66403;BMP180;53212;52.112;5.144;2022-12-04T04:01:56;101782.20;;;0.50
66403;BMP180;53212;52.112;5.144;2022-12-04T04:04:33;101785.40;;;0.50
66403;BMP180;53212;52.112;5.144;2022-12-04T04:07:27;101788.20;;;0.52
66403;BMP180;53212;52.112;5.144;2022-12-04T04:09:59;101794.60;;;0.56
66403;BMP180;53212;52.112;5.144;2022-12-04T04:12:30;101798.40;;;0.50
66403;BMP180;53212;52.112;5.144;2022-12-04T04:15:05;101791.60;;;0.50
66403;BMP180;53212;52.112;5.144;2022-12-04T04:17:52;101782.40;;;0.50
66403;BMP180;53212;52.112;5.144;2022-12-04T04:20:54;101780.00;;;0.50
66403;BMP180;53212;52.112;5.144;2022-12-04T04:23:49;101779.60;;;0.50
66403;BMP180;53212;52.112;5.144;2022-12-04T04:26:44;101779.00;;;0.50
66403;BMP180;53212;52.112;5.144;2022-12-04T04:29:11;101775.00;;;0.50
66403;BMP180;53212;52.112;5.144;2022-12-04T04:34:32;101772.80;;;0.50
66403;BMP180;53212;52.112;5.144;2022-12-04T04:39:55;101768.40;;;0.44
66403;BMP180;53212;52.112;5.144;2022-12-04T04:45:27;101775.20;;;0.50
66403;BMP180;53212;52.112;5.144;2022-12-04T04:48:13;101778.20;;;0.50
66403;BMP180;53212;52.112;5.144;2022-12-04T04:50:40;101785.80;;;0.50
66403;BMP180;53212;52.112;5.144;2022-12-04T04:53:15;101782.20;;;0.46
66403;BMP180;53212;52.112;5.144;2022-12-04T04:55:42;101781.60;;;0.50
66403;BMP180;53212;52.112;5.144;2022-12-04T04:58:13;101779.60;;;0.50
66403;BMP180;53212;52.112;5.144;2022-12-04T05:00:39;101787.00;;;0.50
66403;BMP180;53212;52.112;5.144;2022-12-04T05:03:05;101785.60;;;0.50
66403;BMP180;53212;52.112;5.144;2022-12-04T05:05:31;101783.80;;;0.50
66403;BMP180;53212;52.112;5.144;2022-12-04T05:07:56;101787.40;;;0.54
66403;BMP180;53212;52.112;5.144;2022-12-04T05:10:22;101787.80;;;0.60
66403;BMP180;53212;52.112;5.144;2022-12-04T05:12:48;101796.00;;;0.60
66403;BMP180;53212;52.112;5.144;2022-12-04T05:15:13;101791.00;;;0.60
66403;BMP180;53212;52.112;5.144;2022-12-04T05:17:39;101793.60;;;0.60
66403;BMP180;53212;52.112;5.144;2022-12-04T05:20:05;101794.40;;;0.58
66403;BMP180;53212;52.112;5.144;2022-12-04T05:22:34;101798.40;;;0.52
66403;BMP180;53212;52.112;5.144;2022-12-04T05:25:01;101795.80;;;0.50
66403;BMP180;53212;52.112;5.144;2022-12-04T05:27:28;101793.80;;;0.52
66403;BMP180;53212;52.112;5.144;2022-12-04T05:29:57;101800.60;;;0.54
66403;BMP180;53212;52.112;5.144;2022-12-04T05:32:25;101797.40;;;0.56
66403;BMP180;53212;52.112;5.144;2022-12-04T05:34:53;101801.80;;;0.60
66403;BMP180;53212;52.112;5.144;2022-12-04T05:37:19;101799.60;;;0.60
66403;BMP180;53212;52.112;5.144;2022-12-04T05:39:45;101805.80;;;0.60
66403;BMP180;53212;52.112;5.144;2022-12-04T05:42:12;101804.20;;;0.60
66403;BMP180;53212;52.112;5.144;2022-12-04T05:44:37;101805.20;;;0.60
66403;BMP180;53212;52.112;5.144;2022-12-04T05:47:03;101807.40;;;0.60
66403;BMP180;53212;52.112;5.144;2022-12-04T05:49:30;101804.80;;;0.60
66403;BMP180;53212;52.112;5.144;2022-12-04T05:51:56;101804.40;;;0.60
66403;BMP180;53212;52.112;5.144;2022-12-04T05:54:22;101795.00;;;0.60
66403;BMP180;53212;52.112;5.144;2022-12-04T05:56:49;101793.20;;;0.60
66403;BMP180;53212;52.112;5.144;2022-12-04T05:59:14;101798.40;;;0.60
66403;BMP180;53212;52.112;5.144;2022-12-04T06:01:40;101806.00;;;0.60
66403;BMP180;53212;52.112;5.144;2022-12-04T06:04:06;101801.20;;;0.64
66403;BMP180;53212;52.112;5.144;2022-12-04T06:06:32;101798.80;;;0.70
66403;BMP180;53212;52.112;5.144;2022-12-04T06:08:58;101800.20;;;0.68
66403;BMP180;53212;52.112;5.144;2022-12-04T06:11:30;101797.80;;;0.70
66403;BMP180;53212;52.112;5.144;2022-12-04T06:13:59;101799.00;;;0.70
66403;BMP180;53212;52.112;5.144;2022-12-04T06:16:32;101799.00;;;0.60
66403;BMP180;53212;52.112;5.144;2022-12-04T06:19:04;101799.80;;;0.66
66403;BMP180;53212;52.112;5.144;2022-12-04T06:21:33;101802.60;;;0.70
66403;BMP180;53212;52.112;5.144;2022-12-04T06:23:59;101798.80;;;0.70
66403;BMP180;53212;52.112;5.144;2022-12-04T06:26:25;101796.20;;;0.70
66403;BMP180;53212;52.112;5.144;2022-12-04T06:28:55;101798.40;;;0.70
66403;BMP180;53212;52.112;5.144;2022-12-04T06:31:25;101799.00;;;0.70
66403;BMP180;53212;52.112;5.144;2022-12-04T06:33:53;101797.40;;;0.70
66403;BMP180;53212;52.112;5.144;2022-12-04T06:36:19;101799.20;;;0.70
66403;BMP180;53212;52.112;5.144;2022-12-04T06:38:47;101800.20;;;0.70
66403;BMP180;53212;52.112;5.144;2022-12-04T06:41:16;101803.60;;;0.70
66403;BMP180;53212;52.112;5.144;2022-12-04T06:43:42;101802.40;;;0.70
66403;BMP180;53212;52.112;5.144;2022-12-04T06:46:14;101801.80;;;0.70
66403;BMP180;53212;52.112;5.144;2022-12-04T06:48:41;101805.20;;;0.70
66403;BMP180;53212;52.112;5.144;2022-12-04T06:51:10;101801.00;;;0.70
66403;BMP180;53212;52.112;5.144;2022-12-04T06:53:36;101800.00;;;0.70
66403;BMP180;53212;52.112;5.144;2022-12-04T06:56:06;101806.00;;;0.68
66403;BMP180;53212;52.112;5.144;2022-12-04T06:58:32;101803.20;;;0.70
66403;BMP180;53212;52.112;5.144;2022-12-04T07:00:58;101804.60;;;0.68
66403;BMP180;53212;52.112;5.144;2022-12-04T07:03:25;101801.80;;;0.60
66403;BMP180;53212;52.112;5.144;2022-12-04T07:05:51;101805.60;;;0.60
66403;BMP180;53212;52.112;5.144;2022-12-04T07:08:17;101804.20;;;0.60
66403;BMP180;53212;52.112;5.144;2022-12-04T07:10:43;101806.80;;;0.60
66403;BMP180;53212;52.112;5.144;2022-12-04T07:13:09;101807.40;;;0.60
66403;BMP180;53212;52.112;5.144;2022-12-04T07:15:36;101809.40;;;0.60
66403;BMP180;53212;52.112;5.144;2022-12-04T07:18:02;101805.20;;;0.60
66403;BMP180;53212;52.112;5.144;2022-12-04T07:20:29;101813.20;;;0.62
66403;BMP180;53212;52.112;5.144;2022-12-04T07:22:54;101813.00;;;0.62
66403;BMP180;53212;52.112;5.144;2022-12-04T07:25:20;101813.80;;;0.66
66403;BMP180;53212;52.112;5.144;2022-12-04T07:27:46;101814.00;;;0.64
66403;BMP180;53212;52.112;5.144;2022-12-04T07:30:12;101802.60;;;0.60
66403;BMP180;53212;52.112;5.144;2022-12-04T07:32:37;101805.40;;;0.60
66403;BMP180;53212;52.112;5.144;2022-12-04T07:35:04;101804.20;;;0.60
66403;BMP180;53212;52.112;5.144;2022-12-04T07:37:30;101799.60;;;0.60
66403;BMP180;53212;52.112;5.144;2022-12-04T07:39:55;101797.40;;;0.60
66403;BMP180;53212;52.112;5.144;2022-12-04T07:42:21;101804.60;;;0.60
66403;BMP180;53212;52.112;5.144;2022-12-04T07:44:46;101807.60;;;0.66
66403;BMP180;53212;52.112;5.144;2022-12-04T07:47:12;101811.80;;;0.68
66403;BMP180;53212;52.112;5.144;2022-12-04T07:49:38;101803.80;;;0.60
66403;BMP180;53212;52.112;5.144;2022-12-04T07:52:04;101816.00;;;0.60
66403;BMP180;53212;52.112;5.144;2022-12-04T07:54:30;101819.80;;;0.64
66403;BMP180;53212;52.112;5.144;2022-12-04T07:56:55;101823.80;;;0.68
66403;BMP180;53212;52.112;5.144;2022-12-04T07:59:21;101820.20;;;0.66
66403;BMP180;53212;52.112;5.144;2022-12-04T08:01:46;101823.40;;;0.70
66403;BMP180;53212;52.112;5.144;2022-12-04T08:04:12;101821.40;;;0.70
66403;BMP180;53212;52.112;5.144;2022-12-04T08:06:37;101826.40;;;0.70
66403;BMP180;53212;52.112;5.144;2022-12-04T08:09:04;101830.40;;;0.80
66403;BMP180;53212;52.112;5.144;2022-12-04T08:11:30;101829.20;;;0.80
66403;BMP180;53212;52.112;5.144;2022-12-04T08:13:59;101829.00;;;0.80
66403;BMP180;53212;52.112;5.144;2022-12-04T08:16:26;101829.40;;;0.80
66403;BMP180;53212;52.112;5.144;2022-12-04T08:18:54;101827.20;;;0.80
66403;BMP180;53212;52.112;5.144;2022-12-04T08:21:23;101834.20;;;0.80
66403;BMP180;53212;52.112;5.144;2022-12-04T08:23:52;101832.80;;;0.80
66403;BMP180;53212;52.112;5.144;2022-12-04T08:26:20;101843.40;;;0.80
66403;BMP180;53212;52.112;5.144;2022-12-04T08:28:46;101843.20;;;0.82
66403;BMP180;53212;52.112;5.144;2022-12-04T08:31:16;101843.80;;;0.90
66403;BMP180;53212;52.112;5.144;2022-12-04T08:33:43;101838.80;;;0.90
66403;BMP180;53212;52.112;5.144;2022-12-04T08:36:12;101843.60;;;0.90
66403;BMP180;53212;52.112;5.144;2022-12-04T08:38:38;101847.40;;;0.90
66403;BMP180;53212;52.112;5.144;2022-12-04T08:41:06;101844.60;;;0.90
66403;BMP180;53212;52.112;5.144;2022-12-04T08:43:32;101843.20;;;0.90
66403;BMP180;53212;52.112;5.144;2022-12-04T08:46:03;101848.40;;;0.84
66403;BMP180;53212;52.112;5.144;2022-12-04T08:48:29;101849.80;;;0.88
66403;BMP180;53212;52.112;5.144;2022-12-04T08:50:55;101846.40;;;0.90
66403;BMP180;53212;52.112;5.144;2022-12-04T08:53:21;101852.80;;;0.90
66403;BMP180;53212;52.112;5.144;2022-12-04T08:55:47;101847.00;;;1.00
66403;BMP180;53212;52.112;5.144;2022-12-04T08:58:13;101858.00;;;1.00
66403;BMP180;53212;52.112;5.144;2022-12-04T09:00:39;101855.20;;;1.02
66403;BMP180;53212;52.112;5.144;2022-12-04T09:03:05;101856.00;;;1.08
66403;BMP180;53212;52.112;5.144;2022-12-04T09:05:31;101861.20;;;1.10
66403;BMP180;53212;52.112;5.144;2022-12-04T09:07:56;101860.80;;;1.10
66403;BMP180;53212;52.112;5.144;2022-12-04T09:10:23;101861.20;;;1.10
66403;BMP180;53212;52.112;5.144;2022-12-04T09:12:48;101860.60;;;1.10
66403;BMP180;53212;52.112;5.144;2022-12-04T09:15:14;101862.20;;;1.02
66403;BMP180;53212;52.112;5.144;2022-12-04T09:17:40;101862.40;;;1.04
66403;BMP180;53212;52.112;5.144;2022-12-04T09:20:07;101862.20;;;1.08
66403;BMP180;53212;52.112;5.144;2022-12-04T09:22:34;101856.60;;;1.10
66403;BMP180;53212;52.112;5.144;2022-12-04T09:25:00;101850.20;;;1.10
66403;BMP180;53212;52.112;5.144;2022-12-04T09:27:26;101852.60;;;1.10
66403;BMP180;53212;52.112;5.144;2022-12-04T09:29:52;101856.40;;;1.10
66403;BMP180;53212;52.112;5.144;2022-12-04T09:32:17;101854.40;;;1.10
66403;BMP180;53212;52.112;5.144;2022-12-04T09:34:43;101858.60;;;1.10
66403;BMP180;53212;52.112;5.144;2022-12-04T09:37:08;101858.00;;;1.10
66403;BMP180;53212;52.112;5.144;2022-12-04T09:39:33;101853.20;;;1.20
66403;BMP180;53212;52.112;5.144;2022-12-04T09:42:30;101853.20;;;1.20
66403;BMP180;53212;52.112;5.144;2022-12-04T09:45:07;101856.60;;;1.30
66403;BMP180;53212;52.112;5.144;2022-12-04T09:47:58;101855.00;;;1.30
66403;BMP180;53212;52.112;5.144;2022-12-04T09:50:39;101852.60;;;1.30
66403;BMP180;53212;52.112;5.144;2022-12-04T09:53:12;101841.40;;;1.30
66403;BMP180;53212;52.112;5.144;2022-12-04T09:56:03;101847.60;;;1.30
66403;BMP180;53212;52.112;5.144;2022-12-04T10:01:05;101853.00;;;1.30
66403;BMP180;53212;52.112;5.144;2022-12-04T10:03:38;101853.00;;;1.30
66403;BMP180;53212;52.112;5.144;2022-12-04T10:06:17;101849.80;;;1.28
66403;BMP180;53212;52.112;5.144;2022-12-04T10:08:45;101849.00;;;1.28
66403;BMP180;53212;52.112;5.144;2022-12-04T10:11:25;101849.40;;;1.30
66403;BMP180;53212;52.112;5.144;2022-12-04T10:14:39;101845.40;;;1.30
66403;BMP180;53212;52.112;5.144;2022-12-04T10:20:46;101849.40;;;1.28
66403;BMP180;53212;52.112;5.144;2022-12-04T10:23:48;101846.60;;;1.22
66403;BMP180;53212;52.112;5.144;2022-12-04T10:26:18;101838.40;;;1.20
66403;BMP180;53212;52.112;5.144;2022-12-04T10:28:52;101851.20;;;1.20
66403;BMP180;53212;52.112;5.144;2022-12-04T10:31:19;101850.00;;;1.20
66403;BMP180;53212;52.112;5.144;2022-12-04T10:33:52;101850.60;;;1.20
66403;BMP180;53212;52.112;5.144;2022-12-04T10:36:22;101847.60;;;1.18
66403;BMP180;53212;52.112;5.144;2022-12-04T10:39:05;101843.40;;;1.20
66403;BMP180;53212;52.112;5.144;2022-12-04T10:41:49;101843.60;;;1.20
66403;BMP180;53212;52.112;5.144;2022-12-04T10:44:18;101846.40;;;1.20
66403;BMP180;53212;52.112;5.144;2022-12-04T10:46:45;101841.40;;;1.20
66403;BMP180;53212;52.112;5.144;2022-12-04T10:49:20;101845.80;;;1.20
66403;BMP180;53212;52.112;5.144;2022-12-04T10:51:47;101844.80;;;1.22
66403;BMP180;53212;52.112;5.144;2022-12-04T10:54:36;101841.80;;;1.20
66403;BMP180;53212;52.112;5.144;2022-12-04T10:57:08;101838.60;;;1.20
66403;BMP180;53212;52.112;5.144;2022-12-04T10:59:38;101837.40;;;1.20
66403;BMP180;53212;52.112;5.144;2022-12-04T11:04:36;101834.40;;;1.24
66403;BMP180;53212;52.112;5.144;2022-12-04T11:07:14;101833.40;;;1.28
66403;BMP180;53212;52.112;5.144;2022-12-04T11:09:42;101829.60;;;1.30
66403;BMP180;53212;52.112;5.144;2022-12-04T11:12:17;101824.00;;;1.30
66403;BMP180;53212;52.112;5.144;2022-12-04T11:14:43;101822.20;;;1.30
66403;BMP180;53212;52.112;5.144;2022-12-04T11:17:17;101820.60;;;1.30
66403;BMP180;53212;52.112;5.144;2022-12-04T11:19:43;101812.80;;;1.30
66403;BMP180;53212;52.112;5.144;2022-12-04T11:22:18;101816.60;;;1.30
66403;BMP180;53212;52.112;5.144;2022-12-04T11:24:56;101819.20;;;1.30
66403;BMP180;53212;52.112;5.144;2022-12-04T11:27:31;101813.00;;;1.30
66403;BMP180;53212;52.112;5.144;2022-12-04T11:30:09;101814.60;;;1.40
66403;BMP180;53212;52.112;5.144;2022-12-04T11:32:35;101813.60;;;1.40
66403;BMP180;53212;52.112;5.144;2022-12-04T11:35:21;101816.00;;;1.40
66403;BMP180;53212;52.112;5.144;2022-12-04T11:38:16;101814.60;;;1.40
66403;BMP180;53212;52.112;5.144;2022-12-04T11:40:56;101815.60;;;1.40
66403;BMP180;53212;52.112;5.144;2022-12-04T11:43:28;101815.80;;;1.40
66403;BMP180;53212;52.112;5.144;2022-12-04T11:46:02;101803.80;;;1.40
66403;BMP180;53212;52.112;5.144;2022-12-04T11:48:41;101802.00;;;1.40
66403;BMP180;53212;52.112;5.144;2022-12-04T11:54:46;101789.80;;;1.40
66403;BMP180;53212;52.112;5.144;2022-12-04T11:57:29;101782.80;;;1.40
66403;BMP180;53212;52.112;5.144;2022-12-04T12:03:19;101768.40;;;1.40
66403;BMP180;53212;52.112;5.144;2022-12-04T12:06:17;101767.00;;;1.40
66403;BMP180;53212;52.112;5.144;2022-12-04T12:08:59;101762.60;;;1.48
66403;BMP180;53212;52.112;5.144;2022-12-04T12:11:41;101764.40;;;1.50
66403;BMP180;53212;52.112;5.144;2022-12-04T12:17:07;101766.80;;;1.50
66403;BMP180;53212;52.112;5.144;2022-12-04T12:20:00;101759.60;;;1.52
66403;BMP180;53212;52.112;5.144;2022-12-04T12:22:39;101764.40;;;1.54
66403;BMP180;53212;52.112;5.144;2022-12-04T12:33:50;101764.20;;;1.50
66403;BMP180;53212;52.112;5.144;2022-12-04T12:36:19;101765.00;;;1.50
66403;BMP180;53212;52.112;5.144;2022-12-04T12:39:01;101763.80;;;1.50
66403;BMP180;53212;52.112;5.144;2022-12-04T12:41:38;101766.40;;;1.50
66403;BMP180;53212;52.112;5.144;2022-12-04T12:44:32;101770.60;;;1.50
66403;BMP180;53212;52.112;5.144;2022-12-04T12:47:11;101764.20;;;1.50
66403;BMP180;53212;52.112;5.144;2022-12-04T12:50:14;101763.40;;;1.50
66403;BMP180;53212;52.112;5.144;2022-12-04T12:52:57;101766.40;;;1.50
66403;BMP180;53212;52.112;5.144;2022-12-04T12:55:33;101762.40;;;1.50
66403;BMP180;53212;52.112;5.144;2022-12-04T12:58:11;101762.00;;;1.50
66403;BMP180;53212;52.112;5.144;2022-12-04T13:00:45;101757.40;;;1.50
66403;BMP180;53212;52.112;5.144;2022-12-04T13:03:56;101758.40;;;1.50
66403;BMP180;53212;52.112;5.144;2022-12-04T13:07:09;101756.80;;;1.50
66403;BMP180;53212;52.112;5.144;2022-12-04T13:09:41;101758.60;;;1.50
66403;BMP180;53212;52.112;5.144;2022-12-04T13:12:13;101753.20;;;1.40
66403;BMP180;53212;52.112;5.144;2022-12-04T13:14:39;101753.40;;;1.40
66403;BMP180;53212;52.112;5.144;2022-12-04T13:17:21;101751.60;;;1.40
66403;BMP180;53212;52.112;5.144;2022-12-04T13:19:54;101742.00;;;1.40
66403;BMP180;53212;52.112;5.144;2022-12-04T13:22:55;101740.40;;;1.40
66403;BMP180;53212;52.112;5.144;2022-12-04T13:31:30;101732.20;;;1.50
66403;BMP180;53212;52.112;5.144;2022-12-04T13:40:14;101733.20;;;1.60
66403;BMP180;53212;52.112;5.144;2022-12-04T13:42:47;101726.80;;;1.60
66403;BMP180;53212;52.112;5.144;2022-12-04T13:45:31;101724.00;;;1.60
66403;BMP180;53212;52.112;5.144;2022-12-04T13:48:00;101728.00;;;1.60
66403;BMP180;53212;52.112;5.144;2022-12-04T13:50:34;101741.00;;;1.60
66403;BMP180;53212;52.112;5.144;2022-12-04T13:53:00;101738.00;;;1.70
66403;BMP180;53212;52.112;5.144;2022-12-04T13:55:36;101736.20;;;1.62
66403;BMP180;53212;52.112;5.144;2022-12-04T14:00:35;101729.80;;;1.70
66403;BMP180;53212;52.112;5.144;2022-12-04T14:03:26;101733.00;;;1.70
66403;BMP180;53212;52.112;5.144;2022-12-04T14:05:52;101737.20;;;1.70
66403;BMP180;53212;52.112;5.144;2022-12-04T14:08:22;101743.00;;;1.70
66403;BMP180;53212;52.112;5.144;2022-12-04T14:11:02;101744.00;;;1.66
66403;BMP180;53212;52.112;5.144;2022-12-04T14:13:43;101747.00;;;1.60
66403;BMP180;53212;52.112;5.144;2022-12-04T14:16:25;101746.20;;;1.60
66403;BMP180;53212;52.112;5.144;2022-12-04T14:18:58;101743.60;;;1.60
66403;BMP180;53212;52.112;5.144;2022-12-04T14:21:25;101747.00;;;1.60
66403;BMP180;53212;52.112;5.144;2022-12-04T14:23:51;101744.80;;;1.60
66403;BMP180;53212;52.112;5.144;2022-12-04T14:26:25;101747.40;;;1.60
66403;BMP180;53212;52.112;5.144;2022-12-04T14:29:04;101751.40;;;1.60
66403;BMP180;53212;52.112;5.144;2022-12-04T14:31:37;101749.60;;;1.66
66403;BMP180;53212;52.112;5.144;2022-12-04T14:34:21;101746.40;;;1.66
66403;BMP180;53212;52.112;5.144;2022-12-04T14:36:49;101747.80;;;1.70
66403;BMP180;53212;52.112;5.144;2022-12-04T14:39:30;101741.20;;;1.68
66403;BMP180;53212;52.112;5.144;2022-12-04T14:42:23;101742.60;;;1.60
66403;BMP180;53212;52.112;5.144;2022-12-04T14:44:58;101743.60;;;1.60
66403;BMP180;53212;52.112;5.144;2022-12-04T14:53:48;101746.60;;;1.60
66403;BMP180;53212;52.112;5.144;2022-12-04T14:56:58;101752.20;;;1.60
66403;BMP180;53212;52.112;5.144;2022-12-04T14:59:40;101747.60;;;1.60
66403;BMP180;53212;52.112;5.144;2022-12-04T15:02:14;101753.40;;;1.60
66403;BMP180;53212;52.112;5.144;2022-12-04T15:04:41;101747.40;;;1.50
66403;BMP180;53212;52.112;5.144;2022-12-04T15:07:25;101748.20;;;1.50
66403;BMP180;53212;52.112;5.144;2022-12-04T15:09:58;101749.00;;;1.50
66403;BMP180;53212;52.112;5.144;2022-12-04T15:13:00;101743.40;;;1.50
66403;BMP180;53212;52.112;5.144;2022-12-04T15:15:29;101745.80;;;1.50
66403;BMP180;53212;52.112;5.144;2022-12-04T15:17:56;101749.20;;;1.58
66403;BMP180;53212;52.112;5.144;2022-12-04T15:20:23;101752.20;;;1.60
66403;BMP180;53212;52.112;5.144;2022-12-04T15:22:48;101745.80;;;1.60
66403;BMP180;53212;52.112;5.144;2022-12-04T15:25:27;101746.80;;;1.60
66403;BMP180;53212;52.112;5.144;2022-12-04T15:28:15;101746.80;;;1.60
66403;BMP180;53212;52.112;5.144;2022-12-04T15:30:42;101750.60;;;1.50
66403;BMP180;53212;52.112;5.144;2022-12-04T15:33:20;101753.80;;;1.50
66403;BMP180;53212;52.112;5.144;2022-12-04T15:35:52;101754.60;;;1.50
66403;BMP180;53212;52.112;5.144;2022-12-04T15:38:18;101750.20;;;1.50
66403;BMP180;53212;52.112;5.144;2022-12-04T15:40:59;101751.80;;;1.50
66403;BMP180;53212;52.112;5.144;2022-12-04T15:43:31;101754.60;;;1.50
66403;BMP180;53212;52.112;5.144;2022-12-04T15:45:57;101756.60;;;1.50
66403;BMP180;53212;52.112;5.144;2022-12-04T15:48:32;101757.60;;;1.50
66403;BMP180;53212;52.112;5.144;2022-12-04T15:51:04;101761.80;;;1.50